CheckWX is a tool to help pilots better visualize weather data.  It is not intended as a substitute for an official pre-flight weather briefing.

06:59:03 UTC

OISL METAR
Lar Airport
Lar, Iran
Current

59 mins ago

OISL 070600Z 00000KT 9999 FEW040 OVC190 24/10 Q1016 NOSIG
Observed
Apr-7 @ 06:00 UTC
Visibility
10,000+ meters
Flight Rules
VFR
Cloud Levels
  • Few at 4,000' AGL
  • Overcast at 19,000' AGL
Temperature
24°C / 75°F
Dewpoint
10°C / 50°F
Humidity
41%
Altimeter
30" Hg
Pressure
1015.92 hPa
Previous

2 hours ago

OISL 070500Z 00000KT 9999 FEW040 OVC190 20/09 Q1016 NOSIG
Observed
Apr-7 @ 05:00 UTC
Visibility
10,000+ meters
Flight Rules
VFR
Cloud Levels
  • Few at 4,000' AGL
  • Overcast at 19,000' AGL
Temperature
20°C / 68°F
Dewpoint
C / 48°F
Humidity
49%
Altimeter
30" Hg
Pressure
1015.92 hPa
Previous

3 hours ago

OISL 070400Z 00000KT CAVOK 18/10 Q1016 NOSIG
Observed
Apr-7 @ 04:00 UTC
Visibility
10,000+ meters
Flight Rules
VFR
Cloud Levels
  • Clear skies
Temperature
18°C / 64°F
Dewpoint
10°C / 50°F
Humidity
60%
Altimeter
30" Hg
Pressure
1015.92 hPa